sensor_id;sensor_type;location;lat;lon;timestamp;temperature;humidity
35363;DHT22;21463;47.480;8.214;2022-12-20T00:00:41;20.70;31.90
35363;DHT22;21463;47.480;8.214;2022-12-20T00:01:44;20.60;31.80
35363;DHT22;21463;47.480;8.214;2022-12-20T00:02:47;20.70;31.90
35363;DHT22;21463;47.480;8.214;2022-12-20T00:03:53;20.70;32.50
35363;DHT22;21463;47.480;8.214;2022-12-20T00:04:59;20.70;31.90
35363;DHT22;21463;47.480;8.214;2022-12-20T00:06:01;20.60;31.80
35363;DHT22;21463;47.480;8.214;2022-12-20T00:07:05;20.60;31.80
35363;DHT22;21463;47.480;8.214;2022-12-20T00:08:09;20.60;31.80
35363;DHT22;21463;47.480;8.214;2022-12-20T00:09:12;20.70;31.90
35363;DHT22;21463;47.480;8.214;2022-12-20T00:10:15;20.60;31.80
35363;DHT22;21463;47.480;8.214;2022-12-20T00:11:17;20.60;31.80
35363;DHT22;21463;47.480;8.214;2022-12-20T00:12:20;20.60;31.80
35363;DHT22;21463;47.480;8.214;2022-12-20T00:13:23;20.70;31.90
35363;DHT22;21463;47.480;8.214;2022-12-20T00:14:27;20.70;32.50
35363;DHT22;21463;47.480;8.214;2022-12-20T00:15:29;20.60;31.80
35363;DHT22;21463;47.480;8.214;2022-12-20T00:16:32;20.70;31.90
35363;DHT22;21463;47.480;8.214;2022-12-20T00:17:35;20.70;31.90
35363;DHT22;21463;47.480;8.214;2022-12-20T00:18:39;20.70;31.90
35363;DHT22;21463;47.480;8.214;2022-12-20T00:19:44;20.70;31.90
35363;DHT22;21463;47.480;8.214;2022-12-20T00:20:47;20.60;31.90
35363;DHT22;21463;47.480;8.214;2022-12-20T00:21:49;20.70;31.90
35363;DHT22;21463;47.480;8.214;2022-12-20T00:22:52;20.70;31.90
35363;DHT22;21463;47.480;8.214;2022-12-20T00:23:56;20.60;31.80
35363;DHT22;21463;47.480;8.214;2022-12-20T00:24:58;20.60;31.90
35363;DHT22;21463;47.480;8.214;2022-12-20T00:26:08;20.60;31.80
35363;DHT22;21463;47.480;8.214;2022-12-20T00:27:12;20.70;32.00
35363;DHT22;21463;47.480;8.214;2022-12-20T00:28:14;20.70;32.00
35363;DHT22;21463;47.480;8.214;2022-12-20T00:29:17;20.60;31.80
35363;DHT22;21463;47.480;8.214;2022-12-20T00:30:19;20.60;31.80
35363;DHT22;21463;47.480;8.214;2022-12-20T00:31:23;20.70;31.90
35363;DHT22;21463;47.480;8.214;2022-12-20T00:32:28;20.70;32.00
35363;DHT22;21463;47.480;8.214;2022-12-20T00:33:33;20.70;31.90
35363;DHT22;21463;47.480;8.214;2022-12-20T00:34:36;20.60;31.90
35363;DHT22;21463;47.480;8.214;2022-12-20T00:35:41;20.60;32.50
35363;DHT22;21463;47.480;8.214;2022-12-20T00:36:44;20.60;31.90
35363;DHT22;21463;47.480;8.214;2022-12-20T00:37:48;20.70;31.90
35363;DHT22;21463;47.480;8.214;2022-12-20T00:38:52;20.70;31.90
35363;DHT22;21463;47.480;8.214;2022-12-20T00:39:56;20.70;32.00
35363;DHT22;21463;47.480;8.214;2022-12-20T00:41:13;20.70;32.00
35363;DHT22;21463;47.480;8.214;2022-12-20T00:42:16;20.70;32.00
35363;DHT22;21463;47.480;8.214;2022-12-20T00:43:19;20.60;31.90
35363;DHT22;21463;47.480;8.214;2022-12-20T00:44:22;20.70;31.90
35363;DHT22;21463;47.480;8.214;2022-12-20T00:45:24;20.60;31.90
35363;DHT22;21463;47.480;8.214;2022-12-20T00:46:28;20.70;32.00
35363;DHT22;21463;47.480;8.214;2022-12-20T00:47:34;20.70;32.50
35363;DHT22;21463;47.480;8.214;2022-12-20T00:48:38;20.60;31.90
35363;DHT22;21463;47.480;8.214;2022-12-20T00:49:41;20.70;32.00
35363;DHT22;21463;47.480;8.214;2022-12-20T00:50:44;20.70;32.00
35363;DHT22;21463;47.480;8.214;2022-12-20T00:51:48;20.60;31.90
35363;DHT22;21463;47.480;8.214;2022-12-20T00:52:52;20.70;31.90
35363;DHT22;21463;47.480;8.214;2022-12-20T00:53:55;20.70;31.90
35363;DHT22;21463;47.480;8.214;2022-12-20T00:54:57;20.60;31.90
35363;DHT22;21463;47.480;8.214;2022-12-20T00:56:01;20.70;31.90
35363;DHT22;21463;47.480;8.214;2022-12-20T00:57:04;20.60;31.90
35363;DHT22;21463;47.480;8.214;2022-12-20T00:58:08;20.70;31.90
35363;DHT22;21463;47.480;8.214;2022-12-20T00:59:10;20.70;31.90
35363;DHT22;21463;47.480;8.214;2022-12-20T01:00:15;20.70;31.90
35363;DHT22;21463;47.480;8.214;2022-12-20T01:01:24;20.60;31.90
35363;DHT22;21463;47.480;8.214;2022-12-20T01:02:27;20.70;32.00
35363;DHT22;21463;47.480;8.214;2022-12-20T01:03:30;20.70;32.00
35363;DHT22;21463;47.480;8.214;2022-12-20T01:04:33;20.60;31.90
35363;DHT22;21463;47.480;8.214;2022-12-20T01:05:38;20.60;32.50
35363;DHT22;21463;47.480;8.214;2022-12-20T01:06:41;20.70;31.90
35363;DHT22;21463;47.480;8.214;2022-12-20T01:07:44;20.70;31.90
35363;DHT22;21463;47.480;8.214;2022-12-20T01:08:47;20.70;31.90
35363;DHT22;21463;47.480;8.214;2022-12-20T01:09:50;20.60;31.90
35363;DHT22;21463;47.480;8.214;2022-12-20T01:11:01;20.60;31.90
35363;DHT22;21463;47.480;8.214;2022-12-20T01:12:03;20.70;32.00
35363;DHT22;21463;47.480;8.214;2022-12-20T01:13:07;20.70;32.00
35363;DHT22;21463;47.480;8.214;2022-12-20T01:14:14;20.70;32.00
35363;DHT22;21463;47.480;8.214;2022-12-20T01:15:18;20.60;31.90
35363;DHT22;21463;47.480;8.214;2022-12-20T01:16:23;20.70;32.60
35363;DHT22;21463;47.480;8.214;2022-12-20T01:17:26;20.70;31.90
35363;DHT22;21463;47.480;8.214;2022-12-20T01:18:28;20.60;31.90
35363;DHT22;21463;47.480;8.214;2022-12-20T01:19:31;20.70;32.00
35363;DHT22;21463;47.480;8.214;2022-12-20T01:20:35;20.70;32.00
35363;DHT22;21463;47.480;8.214;2022-12-20T01:21:39;20.70;31.90
35363;DHT22;21463;47.480;8.214;2022-12-20T01:22:45;20.70;32.00
35363;DHT22;21463;47.480;8.214;2022-12-20T01:23:49;20.70;31.90
35363;DHT22;21463;47.480;8.214;2022-12-20T01:24:51;20.60;31.90
35363;DHT22;21463;47.480;8.214;2022-12-20T01:25:58;20.70;31.90
35363;DHT22;21463;47.480;8.214;2022-12-20T01:27:00;20.60;31.80
35363;DHT22;21463;47.480;8.214;2022-12-20T01:28:03;20.60;31.90
35363;DHT22;21463;47.480;8.214;2022-12-20T01:29:05;20.60;31.80
35363;DHT22;21463;47.480;8.214;2022-12-20T01:30:08;20.60;31.90
35363;DHT22;21463;47.480;8.214;2022-12-20T01:31:16;20.70;31.90
35363;DHT22;21463;47.480;8.214;2022-12-20T01:32:20;20.60;31.80
35363;DHT22;21463;47.480;8.214;2022-12-20T01:33:22;20.60;32.40
35363;DHT22;21463;47.480;8.214;2022-12-20T01:34:25;20.70;31.90
35363;DHT22;21463;47.480;8.214;2022-12-20T01:35:28;20.70;31.90
35363;DHT22;21463;47.480;8.214;2022-12-20T01:36:33;20.70;31.90
35363;DHT22;21463;47.480;8.214;2022-12-20T01:37:37;20.70;31.90
35363;DHT22;21463;47.480;8.214;2022-12-20T01:38:40;20.70;31.90
35363;DHT22;21463;47.480;8.214;2022-12-20T01:39:43;20.60;31.80
35363;DHT22;21463;47.480;8.214;2022-12-20T01:40:47;20.70;31.90
35363;DHT22;21463;47.480;8.214;2022-12-20T01:41:50;20.70;31.90
35363;DHT22;21463;47.480;8.214;2022-12-20T01:42:53;20.70;31.90
35363;DHT22;21463;47.480;8.214;2022-12-20T01:43:59;20.60;31.80
35363;DHT22;21463;47.480;8.214;2022-12-20T01:45:07;20.70;31.90
35363;DHT22;21463;47.480;8.214;2022-12-20T01:46:10;20.60;31.80
35363;DHT22;21463;47.480;8.214;2022-12-20T01:47:13;20.70;31.90
35363;DHT22;21463;47.480;8.214;2022-12-20T01:48:23;20.60;31.80
35363;DHT22;21463;47.480;8.214;2022-12-20T01:49:31;20.60;31.80
35363;DHT22;21463;47.480;8.214;2022-12-20T01:50:36;20.60;31.90
35363;DHT22;21463;47.480;8.214;2022-12-20T01:52:21;20.60;31.80
35363;DHT22;21463;47.480;8.214;2022-12-20T01:53:20;20.60;31.80
35363;DHT22;21463;47.480;8.214;2022-12-20T01:54:47;20.70;31.90
35363;DHT22;21463;47.480;8.214;2022-12-20T01:55:52;20.70;31.90
35363;DHT22;21463;47.480;8.214;2022-12-20T01:57:03;20.60;31.80
35363;DHT22;21463;47.480;8.214;2022-12-20T01:58:12;20.70;31.90
35363;DHT22;21463;47.480;8.214;2022-12-20T01:59:16;20.70;31.80
35363;DHT22;21463;47.480;8.214;2022-12-20T02:00:19;20.60;31.80
35363;DHT22;21463;47.480;8.214;2022-12-20T02:01:24;20.60;31.80
35363;DHT22;21463;47.480;8.214;2022-12-20T02:02:29;20.70;31.90
35363;DHT22;21463;47.480;8.214;2022-12-20T02:03:33;20.60;31.80
35363;DHT22;21463;47.480;8.214;2022-12-20T02:04:36;20.60;31.80
35363;DHT22;21463;47.480;8.214;2022-12-20T02:05:41;20.70;31.90
35363;DHT22;21463;47.480;8.214;2022-12-20T02:06:45;20.70;31.90
35363;DHT22;21463;47.480;8.214;2022-12-20T02:07:49;20.70;31.80
35363;DHT22;21463;47.480;8.214;2022-12-20T02:08:56;20.60;31.80
35363;DHT22;21463;47.480;8.214;2022-12-20T02:10:01;20.60;31.80
35363;DHT22;21463;47.480;8.214;2022-12-20T02:11:23;20.60;31.80
35363;DHT22;21463;47.480;8.214;2022-12-20T02:12:39;20.60;31.80
35363;DHT22;21463;47.480;8.214;2022-12-20T02:16:46;20.70;31.80
35363;DHT22;21463;47.480;8.214;2022-12-20T02:18:07;20.60;31.80
35363;DHT22;21463;47.480;8.214;2022-12-20T02:21:06;20.60;31.80
35363;DHT22;21463;47.480;8.214;2022-12-20T02:26:57;20.70;31.80
35363;DHT22;21463;47.480;8.214;2022-12-20T02:31:09;20.70;31.80
35363;DHT22;21463;47.480;8.214;2022-12-20T02:32:21;20.60;31.80
35363;DHT22;21463;47.480;8.214;2022-12-20T02:33:27;20.70;31.80
35363;DHT22;21463;47.480;8.214;2022-12-20T02:34:32;20.70;31.80
35363;DHT22;21463;47.480;8.214;2022-12-20T02:35:36;20.70;31.80
35363;DHT22;21463;47.480;8.214;2022-12-20T02:36:40;20.60;31.80
35363;DHT22;21463;47.480;8.214;2022-12-20T02:37:47;20.60;31.70
35363;DHT22;21463;47.480;8.214;2022-12-20T02:38:51;20.70;31.80
35363;DHT22;21463;47.480;8.214;2022-12-20T02:39:54;20.60;31.70
35363;DHT22;21463;47.480;8.214;2022-12-20T02:41:26;20.70;31.80
35363;DHT22;21463;47.480;8.214;2022-12-20T02:42:32;20.60;31.70
35363;DHT22;21463;47.480;8.214;2022-12-20T02:43:39;20.60;31.70
35363;DHT22;21463;47.480;8.214;2022-12-20T02:45:05;20.60;31.70
35363;DHT22;21463;47.480;8.214;2022-12-20T02:46:22;20.60;31.70
35363;DHT22;21463;47.480;8.214;2022-12-20T02:47:32;20.60;31.70
35363;DHT22;21463;47.480;8.214;2022-12-20T02:48:37;20.60;31.70
35363;DHT22;21463;47.480;8.214;2022-12-20T02:49:42;20.60;31.70
35363;DHT22;21463;47.480;8.214;2022-12-20T02:50:49;20.60;31.70
35363;DHT22;21463;47.480;8.214;2022-12-20T02:51:55;20.70;31.80
35363;DHT22;21463;47.480;8.214;2022-12-20T02:52:59;20.70;31.80
35363;DHT22;21463;47.480;8.214;2022-12-20T02:54:03;20.70;32.40
35363;DHT22;21463;47.480;8.214;2022-12-20T02:55:08;20.60;31.70
35363;DHT22;21463;47.480;8.214;2022-12-20T02:57:37;20.60;31.70
35363;DHT22;21463;47.480;8.214;2022-12-20T02:58:53;20.70;31.80
35363;DHT22;21463;47.480;8.214;2022-12-20T02:59:59;20.60;31.70
35363;DHT22;21463;47.480;8.214;2022-12-20T03:01:19;20.60;31.70
35363;DHT22;21463;47.480;8.214;2022-12-20T03:02:24;20.60;31.60
35363;DHT22;21463;47.480;8.214;2022-12-20T03:03:32;20.60;31.70
35363;DHT22;21463;47.480;8.214;2022-12-20T03:04:39;20.60;31.70
35363;DHT22;21463;47.480;8.214;2022-12-20T03:05:46;20.70;31.70
35363;DHT22;21463;47.480;8.214;2022-12-20T03:07:05;20.60;31.60
35363;DHT22;21463;47.480;8.214;2022-12-20T03:08:08;20.60;31.70
35363;DHT22;21463;47.480;8.214;2022-12-20T03:09:11;20.70;31.70
35363;DHT22;21463;47.480;8.214;2022-12-20T03:10:15;20.70;31.70
35363;DHT22;21463;47.480;8.214;2022-12-20T03:11:18;20.70;31.70
35363;DHT22;21463;47.480;8.214;2022-12-20T03:12:21;20.70;31.80
35363;DHT22;21463;47.480;8.214;2022-12-20T03:13:25;20.70;31.70
35363;DHT22;21463;47.480;8.214;2022-12-20T03:14:39;20.60;31.60
35363;DHT22;21463;47.480;8.214;2022-12-20T03:15:44;20.70;31.70
35363;DHT22;21463;47.480;8.214;2022-12-20T03:16:51;20.70;31.70
35363;DHT22;21463;47.480;8.214;2022-12-20T03:17:55;20.60;31.70
35363;DHT22;21463;47.480;8.214;2022-12-20T03:18:58;20.60;31.70
35363;DHT22;21463;47.480;8.214;2022-12-20T03:20:03;20.60;31.60
35363;DHT22;21463;47.480;8.214;2022-12-20T03:21:07;20.60;31.70
35363;DHT22;21463;47.480;8.214;2022-12-20T03:22:11;20.60;32.30
35363;DHT22;21463;47.480;8.214;2022-12-20T03:23:15;20.60;31.60
35363;DHT22;21463;47.480;8.214;2022-12-20T03:24:18;20.60;31.60
35363;DHT22;21463;47.480;8.214;2022-12-20T03:25:21;20.70;31.70
35363;DHT22;21463;47.480;8.214;2022-12-20T03:26:23;20.60;31.60
35363;DHT22;21463;47.480;8.214;2022-12-20T03:27:31;20.60;31.60
35363;DHT22;21463;47.480;8.214;2022-12-20T03:28:34;20.60;31.60
35363;DHT22;21463;47.480;8.214;2022-12-20T03:29:37;20.60;31.60
35363;DHT22;21463;47.480;8.214;2022-12-20T03:30:40;20.60;31.60
35363;DHT22;21463;47.480;8.214;2022-12-20T03:31:43;20.60;31.60
35363;DHT22;21463;47.480;8.214;2022-12-20T03:32:46;20.60;31.60
35363;DHT22;21463;47.480;8.214;2022-12-20T03:33:49;20.60;31.60
35363;DHT22;21463;47.480;8.214;2022-12-20T03:34:52;20.60;31.70
35363;DHT22;21463;47.480;8.214;2022-12-20T03:36:02;20.70;31.70
35363;DHT22;21463;47.480;8.214;2022-12-20T03:37:05;20.60;31.60
35363;DHT22;21463;47.480;8.214;2022-12-20T03:38:08;20.60;31.70
35363;DHT22;21463;47.480;8.214;2022-12-20T03:39:13;20.70;31.70
35363;DHT22;21463;47.480;8.214;2022-12-20T03:40:17;20.70;31.60
35363;DHT22;21463;47.480;8.214;2022-12-20T03:41:21;20.60;31.60
35363;DHT22;21463;47.480;8.214;2022-12-20T03:42:24;20.60;31.60
35363;DHT22;21463;47.480;8.214;2022-12-20T03:43:27;20.70;31.70
35363;DHT22;21463;47.480;8.214;2022-12-20T03:44:31;20.60;31.60
35363;DHT22;21463;47.480;8.214;2022-12-20T03:45:37;20.60;31.60
35363;DHT22;21463;47.480;8.214;2022-12-20T03:46:40;20.70;31.60
35363;DHT22;21463;47.480;8.214;2022-12-20T03:47:43;20.60;31.60
35363;DHT22;21463;47.480;8.214;2022-12-20T03:48:46;20.70;31.60
35363;DHT22;21463;47.480;8.214;2022-12-20T03:49:49;20.70;32.20
35363;DHT22;21463;47.480;8.214;2022-12-20T03:50:53;20.70;31.60
35363;DHT22;21463;47.480;8.214;2022-12-20T03:51:56;20.70;31.60
35363;DHT22;21463;47.480;8.214;2022-12-20T03:52:58;20.60;31.60
35363;DHT22;21463;47.480;8.214;2022-12-20T03:54:03;20.60;31.50
35363;DHT22;21463;47.480;8.214;2022-12-20T03:55:26;20.70;31.60
35363;DHT22;21463;47.480;8.214;2022-12-20T03:56:30;20.60;31.50
35363;DHT22;21463;47.480;8.214;2022-12-20T03:57:34;20.60;31.60
35363;DHT22;21463;47.480;8.214;2022-12-20T03:58:39;20.60;31.50
35363;DHT22;21463;47.480;8.214;2022-12-20T03:59:43;20.70;31.60
35363;DHT22;21463;47.480;8.214;2022-12-20T04:00:49;20.70;31.60
35363;DHT22;21463;47.480;8.214;2022-12-20T04:02:12;20.60;31.60
35363;DHT22;21463;47.480;8.214;2022-12-20T04:03:15;20.60;31.60
35363;DHT22;21463;47.480;8.214;2022-12-20T04:04:19;20.70;31.60
35363;DHT22;21463;47.480;8.214;2022-12-20T04:05:22;20.60;31.50
35363;DHT22;21463;47.480;8.214;2022-12-20T04:06:25;20.70;31.60
35363;DHT22;21463;47.480;8.214;2022-12-20T04:07:29;20.70;31.60
35363;DHT22;21463;47.480;8.214;2022-12-20T04:08:32;20.60;31.60
35363;DHT22;21463;47.480;8.214;2022-12-20T04:09:35;20.60;31.50
35363;DHT22;21463;47.480;8.214;2022-12-20T04:10:43;20.60;31.50
35363;DHT22;21463;47.480;8.214;2022-12-20T04:12:08;20.60;31.50
35363;DHT22;21463;47.480;8.214;2022-12-20T04:13:13;20.70;31.60
35363;DHT22;21463;47.480;8.214;2022-12-20T04:14:16;20.60;31.50
35363;DHT22;21463;47.480;8.214;2022-12-20T04:15:20;20.60;31.50
35363;DHT22;21463;47.480;8.214;2022-12-20T04:16:26;20.60;31.50
35363;DHT22;21463;47.480;8.214;2022-12-20T04:17:30;20.60;31.50
35363;DHT22;21463;47.480;8.214;2022-12-20T04:18:32;20.60;31.50
35363;DHT22;21463;47.480;8.214;2022-12-20T04:19:35;20.60;31.60
35363;DHT22;21463;47.480;8.214;2022-12-20T04:20:40;20.60;31.50
35363;DHT22;21463;47.480;8.214;2022-12-20T04:21:51;20.60;31.50
35363;DHT22;21463;47.480;8.214;2022-12-20T04:23:17;20.60;31.50
35363;DHT22;21463;47.480;8.214;2022-12-20T04:24:22;20.60;31.50
35363;DHT22;21463;47.480;8.214;2022-12-20T04:25:46;20.60;31.50
35363;DHT22;21463;47.480;8.214;2022-12-20T04:26:51;20.70;31.60
35363;DHT22;21463;47.480;8.214;2022-12-20T04:27:53;20.60;31.50
35363;DHT22;21463;47.480;8.214;2022-12-20T04:28:58;20.70;31.50
35363;DHT22;21463;47.480;8.214;2022-12-20T04:30:01;20.60;31.50
35363;DHT22;21463;47.480;8.214;2022-12-20T04:31:05;20.60;31.50
35363;DHT22;21463;47.480;8.214;2022-12-20T04:32:11;20.70;31.60
35363;DHT22;21463;47.480;8.214;2022-12-20T04:33:14;20.60;32.10
35363;DHT22;21463;47.480;8.214;2022-12-20T04:34:16;20.60;31.50
35363;DHT22;21463;47.480;8.214;2022-12-20T04:35:19;20.60;31.50
35363;DHT22;21463;47.480;8.214;2022-12-20T04:36:22;20.70;31.60
35363;DHT22;21463;47.480;8.214;2022-12-20T04:37:27;20.60;31.50
35363;DHT22;21463;47.480;8.214;2022-12-20T04:38:31;20.60;31.50
35363;DHT22;21463;47.480;8.214;2022-12-20T04:39:34;20.60;31.50
35363;DHT22;21463;47.480;8.214;2022-12-20T04:40:51;20.70;31.50
35363;DHT22;21463;47.480;8.214;2022-12-20T04:41:55;20.60;31.50
35363;DHT22;21463;47.480;8.214;2022-12-20T04:42:59;20.70;31.50
35363;DHT22;21463;47.480;8.214;2022-12-20T04:44:02;20.60;31.50
35363;DHT22;21463;47.480;8.214;2022-12-20T04:45:10;20.60;31.50
35363;DHT22;21463;47.480;8.214;2022-12-20T04:46:14;20.60;31.50
35363;DHT22;21463;47.480;8.214;2022-12-20T04:47:18;20.70;31.50
35363;DHT22;21463;47.480;8.214;2022-12-20T04:48:23;20.60;31.50
35363;DHT22;21463;47.480;8.214;2022-12-20T04:49:48;20.60;31.50
35363;DHT22;21463;47.480;8.214;2022-12-20T04:50:51;20.60;31.40
35363;DHT22;21463;47.480;8.214;2022-12-20T04:51:54;20.60;31.50
35363;DHT22;21463;47.480;8.214;2022-12-20T04:53:22;20.60;31.40
35363;DHT22;21463;47.480;8.214;2022-12-20T04:54:43;20.60;31.50
35363;DHT22;21463;47.480;8.214;2022-12-20T04:55:50;20.60;31.40
35363;DHT22;21463;47.480;8.214;2022-12-20T04:56:54;20.60;31.50
35363;DHT22;21463;47.480;8.214;2022-12-20T04:57:58;20.60;31.50
35363;DHT22;21463;47.480;8.214;2022-12-20T04:59:13;20.60;31.50
35363;DHT22;21463;47.480;8.214;2022-12-20T05:00:18;20.60;31.40
35363;DHT22;21463;47.480;8.214;2022-12-20T05:01:28;20.60;31.50
35363;DHT22;21463;47.480;8.214;2022-12-20T05:02:32;20.60;31.50
35363;DHT22;21463;47.480;8.214;2022-12-20T05:03:40;20.60;31.50
35363;DHT22;21463;47.480;8.214;2022-12-20T05:04:44;20.60;31.40
35363;DHT22;21463;47.480;8.214;2022-12-20T05:05:48;20.60;31.50
35363;DHT22;21463;47.480;8.214;2022-12-20T05:06:52;20.60;31.50
35363;DHT22;21463;47.480;8.214;2022-12-20T05:07:55;20.70;31.50
35363;DHT22;21463;47.480;8.214;2022-12-20T05:08:58;20.70;31.60
35363;DHT22;21463;47.480;8.214;2022-12-20T05:10:05;20.60;31.50
35363;DHT22;21463;47.480;8.214;2022-12-20T05:11:08;20.60;31.50
35363;DHT22;21463;47.480;8.214;2022-12-20T05:12:13;20.60;31.50
35363;DHT22;21463;47.480;8.214;2022-12-20T05:13:16;20.70;31.60
35363;DHT22;21463;47.480;8.214;2022-12-20T05:14:21;20.60;31.50
35363;DHT22;21463;47.480;8.214;2022-12-20T05:15:24;20.60;31.50
35363;DHT22;21463;47.480;8.214;2022-12-20T05:16:27;20.60;31.60
35363;DHT22;21463;47.480;8.214;2022-12-20T05:17:33;20.60;31.60
35363;DHT22;21463;47.480;8.214;2022-12-20T05:18:36;20.60;31.60
35363;DHT22;21463;47.480;8.214;2022-12-20T05:19:47;20.60;31.60
35363;DHT22;21463;47.480;8.214;2022-12-20T05:20:54;20.70;31.70
35363;DHT22;21463;47.480;8.214;2022-12-20T05:22:19;20.60;31.60
35363;DHT22;21463;47.480;8.214;2022-12-20T05:23:48;20.70;31.70
35363;DHT22;21463;47.480;8.214;2022-12-20T05:25:23;20.60;31.70
35363;DHT22;21463;47.480;8.214;2022-12-20T05:26:44;20.60;31.70
35363;DHT22;21463;47.480;8.214;2022-12-20T05:27:50;20.60;31.70
35363;DHT22;21463;47.480;8.214;2022-12-20T05:28:58;20.60;31.70
35363;DHT22;21463;47.480;8.214;2022-12-20T05:30:02;20.60;31.70
35363;DHT22;21463;47.480;8.214;2022-12-20T05:31:06;20.60;31.80
35363;DHT22;21463;47.480;8.214;2022-12-20T05:32:10;20.60;31.80
35363;DHT22;21463;47.480;8.214;2022-12-20T05:33:15;20.60;31.90
35363;DHT22;21463;47.480;8.214;2022-12-20T05:34:19;20.60;31.90
35363;DHT22;21463;47.480;8.214;2022-12-20T05:35:27;20.60;31.90
35363;DHT22;21463;47.480;8.214;2022-12-20T05:36:36;20.70;32.00
35363;DHT22;21463;47.480;8.214;2022-12-20T05:37:41;20.70;32.00
35363;DHT22;21463;47.480;8.214;2022-12-20T05:38:50;20.60;32.00
35363;DHT22;21463;47.480;8.214;2022-12-20T05:39:54;20.70;32.00
35363;DHT22;21463;47.480;8.214;2022-12-20T05:40:58;20.60;32.00
35363;DHT22;21463;47.480;8.214;2022-12-20T05:42:01;20.60;32.00
35363;DHT22;21463;47.480;8.214;2022-12-20T05:43:04;20.60;32.10
35363;DHT22;21463;47.480;8.214;2022-12-20T05:44:16;20.60;32.10
35363;DHT22;21463;47.480;8.214;2022-12-20T05:45:22;20.60;32.10
35363;DHT22;21463;47.480;8.214;2022-12-20T05:46:31;20.60;32.10
35363;DHT22;21463;47.480;8.214;2022-12-20T05:47:38;20.60;32.10
35363;DHT22;21463;47.480;8.214;2022-12-20T05:48:44;20.60;32.10
35363;DHT22;21463;47.480;8.214;2022-12-20T05:49:48;20.70;32.20
35363;DHT22;21463;47.480;8.214;2022-12-20T05:50:51;20.60;32.20
35363;DHT22;21463;47.480;8.214;2022-12-20T05:52:04;20.60;32.30
35363;DHT22;21463;47.480;8.214;2022-12-20T05:53:13;20.60;32.30
35363;DHT22;21463;47.480;8.214;2022-12-20T05:54:21;20.60;32.30
35363;DHT22;21463;47.480;8.214;2022-12-20T05:55:51;20.60;32.30
35363;DHT22;21463;47.480;8.214;2022-12-20T05:56:59;20.70;32.40
35363;DHT22;21463;47.480;8.214;2022-12-20T05:58:09;20.60;32.40
35363;DHT22;21463;47.480;8.214;2022-12-20T05:59:25;20.70;32.50
35363;DHT22;21463;47.480;8.214;2022-12-20T06:00:27;20.60;32.40
35363;DHT22;21463;47.480;8.214;2022-12-20T06:01:30;20.60;32.40
35363;DHT22;21463;47.480;8.214;2022-12-20T06:02:34;20.60;32.50
35363;DHT22;21463;47.480;8.214;2022-12-20T06:03:40;20.70;32.60
35363;DHT22;21463;47.480;8.214;2022-12-20T06:04:52;20.70;32.60
35363;DHT22;21463;47.480;8.214;2022-12-20T06:05:57;20.70;32.70
35363;DHT22;21463;47.480;8.214;2022-12-20T06:07:03;20.60;32.60
35363;DHT22;21463;47.480;8.214;2022-12-20T06:08:07;20.60;32.60
35363;DHT22;21463;47.480;8.214;2022-12-20T06:09:09;20.60;32.70
35363;DHT22;21463;47.480;8.214;2022-12-20T06:10:15;20.60;32.70
35363;DHT22;21463;47.480;8.214;2022-12-20T06:11:26;20.60;32.70
35363;DHT22;21463;47.480;8.214;2022-12-20T06:12:42;20.60;32.70
35363;DHT22;21463;47.480;8.214;2022-12-20T06:13:45;20.70;32.80
35363;DHT22;21463;47.480;8.214;2022-12-20T06:14:48;20.60;32.80
35363;DHT22;21463;47.480;8.214;2022-12-20T06:15:51;20.60;32.80
35363;DHT22;21463;47.480;8.214;2022-12-20T06:16:55;20.70;32.90
35363;DHT22;21463;47.480;8.214;2022-12-20T06:17:58;20.60;32.80
35363;DHT22;21463;47.480;8.214;2022-12-20T06:19:01;20.60;32.80
35363;DHT22;21463;47.480;8.214;2022-12-20T06:20:05;20.60;32.90
35363;DHT22;21463;47.480;8.214;2022-12-20T06:21:08;20.60;32.90
35363;DHT22;21463;47.480;8.214;2022-12-20T06:22:10;20.70;33.00
35363;DHT22;21463;47.480;8.214;2022-12-20T06:23:16;20.60;33.00
35363;DHT22;21463;47.480;8.214;2022-12-20T06:24:29;20.60;33.00
35363;DHT22;21463;47.480;8.214;2022-12-20T06:25:32;20.70;33.10
35363;DHT22;21463;47.480;8.214;2022-12-20T06:26:35;20.70;33.20
35363;DHT22;21463;47.480;8.214;2022-12-20T06:27:41;20.60;33.20
35363;DHT22;21463;47.480;8.214;2022-12-20T06:28:49;20.70;33.20
35363;DHT22;21463;47.480;8.214;2022-12-20T06:29:59;20.60;33.20
35363;DHT22;21463;47.480;8.214;2022-12-20T06:31:09;20.70;33.20
35363;DHT22;21463;47.480;8.214;2022-12-20T06:32:19;20.60;33.20
35363;DHT22;21463;47.480;8.214;2022-12-20T06:33:24;20.70;33.20
35363;DHT22;21463;47.480;8.214;2022-12-20T06:34:27;20.70;33.30
35363;DHT22;21463;47.480;8.214;2022-12-20T06:35:30;20.70;33.30
35363;DHT22;21463;47.480;8.214;2022-12-20T06:36:34;20.70;33.30
35363;DHT22;21463;47.480;8.214;2022-12-20T06:37:38;20.70;33.30
35363;DHT22;21463;47.480;8.214;2022-12-20T06:38:42;20.70;33.30
35363;DHT22;21463;47.480;8.214;2022-12-20T06:39:45;20.70;33.30
35363;DHT22;21463;47.480;8.214;2022-12-20T06:40:48;20.70;33.30
35363;DHT22;21463;47.480;8.214;2022-12-20T06:41:51;20.70;33.30
35363;DHT22;21463;47.480;8.214;2022-12-20T06:42:54;20.70;33.30
35363;DHT22;21463;47.480;8.214;2022-12-20T06:43:58;20.70;33.40
35363;DHT22;21463;47.480;8.214;2022-12-20T06:45:01;20.70;33.40
35363;DHT22;21463;47.480;8.214;2022-12-20T06:46:04;20.70;33.40
35363;DHT22;21463;47.480;8.214;2022-12-20T06:47:08;20.70;33.40
35363;DHT22;21463;47.480;8.214;2022-12-20T06:48:11;20.70;33.40
35363;DHT22;21463;47.480;8.214;2022-12-20T06:49:15;20.70;33.50
35363;DHT22;21463;47.480;8.214;2022-12-20T06:50:19;20.70;33.50
35363;DHT22;21463;47.480;8.214;2022-12-20T06:51:23;20.70;33.50
35363;DHT22;21463;47.480;8.214;2022-12-20T06:52:27;20.70;33.50
35363;DHT22;21463;47.480;8.214;2022-12-20T06:53:31;20.70;33.50
35363;DHT22;21463;47.480;8.214;2022-12-20T06:54:34;20.70;33.50
35363;DHT22;21463;47.480;8.214;2022-12-20T06:55:38;20.80;33.60
35363;DHT22;21463;47.480;8.214;2022-12-20T06:56:41;20.70;33.50
35363;DHT22;21463;47.480;8.214;2022-12-20T06:57:46;20.70;33.50
35363;DHT22;21463;47.480;8.214;2022-12-20T06:58:50;20.70;33.50
35363;DHT22;21463;47.480;8.214;2022-12-20T06:59:52;20.70;33.50
35363;DHT22;21463;47.480;8.214;2022-12-20T07:00:55;20.70;33.50
35363;DHT22;21463;47.480;8.214;2022-12-20T07:01:58;20.70;33.50
35363;DHT22;21463;47.480;8.214;2022-12-20T07:03:01;20.70;33.60
35363;DHT22;21463;47.480;8.214;2022-12-20T07:04:04;20.70;33.60
35363;DHT22;21463;47.480;8.214;2022-12-20T07:05:07;20.70;33.50
35363;DHT22;21463;47.480;8.214;2022-12-20T07:06:09;20.70;33.50
35363;DHT22;21463;47.480;8.214;2022-12-20T07:07:13;20.70;33.50
35363;DHT22;21463;47.480;8.214;2022-12-20T07:08:16;20.70;33.50
35363;DHT22;21463;47.480;8.214;2022-12-20T07:09:20;20.70;33.50
35363;DHT22;21463;47.480;8.214;2022-12-20T07:10:22;20.70;33.50